createdAt,value
2024-01-30T00:00:05.654Z,40.95
2024-01-30T00:02:33.491Z,47.00
2024-01-30T00:05:00.414Z,41.08
2024-01-30T00:07:27.563Z,35.22
2024-01-30T00:09:54.506Z,44.35
2024-01-30T00:12:21.791Z,30.42
2024-01-30T00:14:49.625Z,33.10
2024-01-30T00:17:18.219Z,27.48
2024-01-30T00:19:45.215Z,26.50
2024-01-30T00:22:12.280Z,23.73
2024-01-30T00:24:39.157Z,25.75
2024-01-30T00:27:06.039Z,25.85
2024-01-30T00:32:02.019Z,21.95
2024-01-30T00:36:55.603Z,20.58
2024-01-30T00:39:22.605Z,23.10
2024-01-30T00:41:49.404Z,21.25
2024-01-30T00:46:42.961Z,20.73
2024-01-30T00:51:36.679Z,23.50
2024-01-30T00:54:04.172Z,22.92
2024-01-30T00:56:31.118Z,28.80
2024-01-30T00:58:57.988Z,23.85
2024-01-30T01:03:51.814Z,30.20
2024-01-30T01:06:18.819Z,29.87
2024-01-30T01:08:45.694Z,31.25
2024-01-30T01:13:39.136Z,23.58
2024-01-30T01:18:33.165Z,29.75
2024-01-30T01:21:00.617Z,27.25
2024-01-30T01:23:27.629Z,29.70
2024-01-30T01:25:55.806Z,23.35
2024-01-30T01:28:23.728Z,22.95
2024-01-30T01:33:17.473Z,19.70
2024-01-30T01:35:44.363Z,23.25
2024-01-30T01:40:40.786Z,28.45
2024-01-30T01:43:07.920Z,27.27
2024-01-30T01:45:34.866Z,21.92
2024-01-30T01:48:01.824Z,20.08
2024-01-30T01:50:29.388Z,20.83
2024-01-30T01:52:56.822Z,25.83
2024-01-30T01:55:26.206Z,23.77
2024-01-30T01:57:54.240Z,19.02
2024-01-30T02:00:21.468Z,22.60
2024-01-30T02:02:48.592Z,19.25
2024-01-30T02:05:17.084Z,25.42
2024-01-30T02:07:45.064Z,20.42
2024-01-30T02:10:12.131Z,17.15
2024-01-30T02:12:39.656Z,23.30
2024-01-30T02:15:08.642Z,22.02
2024-01-30T02:17:35.682Z,23.20
2024-01-30T02:20:03.239Z,23.17
2024-01-30T02:22:30.404Z,21.52
2024-01-30T02:24:57.276Z,21.42
2024-01-30T02:29:50.812Z,25.15
2024-01-30T02:34:44.427Z,21.40
2024-01-30T02:37:11.413Z,22.50
2024-01-30T02:39:38.331Z,19.40
2024-01-30T02:42:05.442Z,22.20
2024-01-30T02:44:32.291Z,27.13
2024-01-30T02:49:25.974Z,22.67
2024-01-30T02:51:53.923Z,22.48
2024-01-30T02:54:20.817Z,22.73
2024-01-30T02:56:47.644Z,21.50
2024-01-30T03:01:48.004Z,20.12
2024-01-30T03:04:15.353Z,18.15
2024-01-30T03:06:47.489Z,22.20
2024-01-30T03:09:14.845Z,23.75
2024-01-30T03:11:41.788Z,24.20
2024-01-30T03:14:09.464Z,21.20
2024-01-30T03:16:36.350Z,25.52
2024-01-30T03:19:04.902Z,29.30
2024-01-30T03:21:31.778Z,18.52
2024-01-30T03:26:25.294Z,27.17
2024-01-30T03:31:18.997Z,23.00
2024-01-30T03:33:46.058Z,29.92
2024-01-30T03:36:13.071Z,22.75
2024-01-30T03:38:39.830Z,21.12
2024-01-30T03:43:35.559Z,19.33
2024-01-30T03:48:30.298Z,26.58
2024-01-30T03:50:57.127Z,24.40
2024-01-30T03:55:50.645Z,29.45
2024-01-30T04:00:44.366Z,22.40
2024-01-30T04:03:11.309Z,22.52
2024-01-30T04:05:38.247Z,25.12
2024-01-30T04:08:05.468Z,26.45
2024-01-30T04:10:32.348Z,23.02
2024-01-30T04:12:59.293Z,33.03
2024-01-30T04:15:26.228Z,34.80
2024-01-30T04:17:53.243Z,40.97
2024-01-30T04:20:20.263Z,41.65
2024-01-30T04:22:47.978Z,38.05
2024-01-30T04:25:15.398Z,55.22
2024-01-30T04:27:42.523Z,43.50
2024-01-30T04:30:10.215Z,43.85
2024-01-30T04:32:37.939Z,35.67
2024-01-30T04:35:08.913Z,39.20
2024-01-30T04:37:38.274Z,27.30
2024-01-30T04:42:32.212Z,31.42
2024-01-30T04:44:59.010Z,24.12
2024-01-30T04:49:53.074Z,24.37
2024-01-30T04:52:20.122Z,26.12
2024-01-30T04:54:47.084Z,28.00
2024-01-30T04:57:14.042Z,30.08
2024-01-30T04:59:41.047Z,27.42
2024-01-30T05:02:08.491Z,26.77
2024-01-30T05:04:35.556Z,24.95
2024-01-30T05:07:02.490Z,26.27
2024-01-30T05:09:29.858Z,27.40
2024-01-30T05:11:57.057Z,27.45
2024-01-30T05:14:23.914Z,26.02
2024-01-30T05:19:18.752Z,25.33
2024-01-30T05:21:46.025Z,27.60
2024-01-30T05:24:12.989Z,24.98
2024-01-30T05:26:39.817Z,27.25
2024-01-30T05:31:33.823Z,27.47
2024-01-30T05:34:00.945Z,30.77
2024-01-30T05:36:27.940Z,31.98
2024-01-30T05:38:54.777Z,36.00
2024-01-30T05:43:49.206Z,31.00
2024-01-30T05:48:42.958Z,34.65
2024-01-30T05:51:10.053Z,34.85
2024-01-30T05:53:36.940Z,37.10
2024-01-30T05:58:32.289Z,33.73
2024-01-30T06:00:59.661Z,33.28
2024-01-30T06:03:26.760Z,39.00
2024-01-30T06:05:53.640Z,32.83
2024-01-30T06:08:20.477Z,44.15
2024-01-30T06:13:14.043Z,29.50
2024-01-30T06:15:40.932Z,37.22
2024-01-30T06:18:07.922Z,38.13
2024-01-30T06:20:34.900Z,33.70
2024-01-30T06:23:02.047Z,41.72
2024-01-30T06:25:28.986Z,36.85
2024-01-30T06:27:56.215Z,40.97
2024-01-30T06:30:23.024Z,44.20
2024-01-30T06:35:18.819Z,40.25
2024-01-30T06:37:45.665Z,80.90
2024-01-30T06:42:39.712Z,32.92
2024-01-30T06:45:07.049Z,46.25
2024-01-30T06:47:34.058Z,43.95
2024-01-30T06:50:01.181Z,35.75
2024-01-30T06:52:28.202Z,36.78
2024-01-30T06:54:55.885Z,35.47
2024-01-30T06:57:22.789Z,36.67
2024-01-30T07:02:16.470Z,41.80
2024-01-30T07:04:47.025Z,52.00
2024-01-30T07:07:16.987Z,53.05
2024-01-30T07:09:44.071Z,50.55
2024-01-30T07:12:10.955Z,33.10
2024-01-30T07:14:38.029Z,34.35
2024-01-30T07:17:05.042Z,34.28
2024-01-30T07:19:31.887Z,26.85
2024-01-30T07:21:58.871Z,26.33
2024-01-30T07:24:25.731Z,26.23
2024-01-30T07:26:52.768Z,30.08
2024-01-30T07:29:19.643Z,28.65
2024-01-30T07:31:46.542Z,27.10
2024-01-30T07:34:13.594Z,26.33
2024-01-30T07:36:40.514Z,22.13
2024-01-30T07:39:07.751Z,28.87
2024-01-30T07:41:34.685Z,27.33
2024-01-30T07:44:01.445Z,30.33
2024-01-30T07:48:55.508Z,27.92
2024-01-30T07:51:23.057Z,30.12
2024-01-30T07:53:52.951Z,26.95
2024-01-30T07:56:19.879Z,30.95
2024-01-30T07:58:46.759Z,27.77
2024-01-30T08:03:42.725Z,25.27
2024-01-30T08:06:09.596Z,25.33
2024-01-30T08:11:03.352Z,26.90
2024-01-30T08:13:30.181Z,25.30
2024-01-30T08:15:57.007Z,29.50
2024-01-30T08:20:50.665Z,29.75
2024-01-30T08:25:44.182Z,28.70
2024-01-30T08:28:11.188Z,29.95
2024-01-30T08:30:38.166Z,27.83
2024-01-30T08:33:05.197Z,29.50
2024-01-30T08:35:34.957Z,26.20
2024-01-30T08:38:01.964Z,26.27
2024-01-30T08:40:30.190Z,27.33
2024-01-30T08:42:57.169Z,30.23
2024-01-30T08:45:24.060Z,28.40
2024-01-30T08:47:51.036Z,28.48
2024-01-30T08:50:17.885Z,38.38
2024-01-30T08:55:14.629Z,33.80
2024-01-30T08:57:41.648Z,37.65
2024-01-30T09:00:10.487Z,34.05
2024-01-30T09:02:37.607Z,44.47
2024-01-30T09:05:04.809Z,30.73
2024-01-30T09:07:31.855Z,32.67
2024-01-30T09:09:59.058Z,31.50
2024-01-30T09:12:26.236Z,33.42
2024-01-30T09:14:53.148Z,25.92
2024-01-30T09:17:20.060Z,35.95
2024-01-30T09:19:47.632Z,29.00
2024-01-30T09:22:14.541Z,27.92
2024-01-30T09:24:41.963Z,28.35
2024-01-30T09:27:08.946Z,28.02
2024-01-30T09:29:37.936Z,28.30
2024-01-30T09:32:06.672Z,29.42
2024-01-30T09:34:33.890Z,28.75
2024-01-30T09:37:01.455Z,30.65
2024-01-30T09:39:28.302Z,29.85
2024-01-30T09:42:09.253Z,28.35
2024-01-30T09:44:37.479Z,29.20
2024-01-30T09:47:07.182Z,27.42
2024-01-30T09:49:34.742Z,28.02
2024-01-30T09:52:02.112Z,29.17
2024-01-30T09:54:34.575Z,25.70
2024-01-30T09:57:03.662Z,27.62
2024-01-30T09:59:30.557Z,25.55
2024-01-30T10:01:58.306Z,26.95
2024-01-30T10:04:25.267Z,20.65
2024-01-30T10:06:52.730Z,16.75
2024-01-30T10:09:20.365Z,14.30
2024-01-30T10:11:47.300Z,17.10
2024-01-30T10:14:14.169Z,17.42
2024-01-30T10:16:41.000Z,15.98
2024-01-30T10:21:34.695Z,14.40
2024-01-30T10:26:29.522Z,19.15
2024-01-30T10:28:56.730Z,15.93
2024-01-30T10:31:24.230Z,17.15
2024-01-30T10:33:51.233Z,17.95
2024-01-30T10:36:21.234Z,18.92
2024-01-30T10:38:48.919Z,17.55
2024-01-30T10:41:16.757Z,15.55
2024-01-30T10:43:48.842Z,19.95
2024-01-30T10:46:24.979Z,18.48
2024-01-30T10:48:59.515Z,19.33
2024-01-30T10:51:29.879Z,20.80
2024-01-30T10:53:57.682Z,26.37
2024-01-30T10:56:26.682Z,17.65
2024-01-30T10:58:54.867Z,17.62
2024-01-30T11:01:24.579Z,19.80
2024-01-30T11:03:52.759Z,17.10
2024-01-30T11:06:19.977Z,19.98
2024-01-30T11:08:47.219Z,16.67
2024-01-30T11:11:16.349Z,16.87
2024-01-30T11:13:44.997Z,15.05
2024-01-30T11:16:12.664Z,14.75
2024-01-30T11:18:39.603Z,17.62
2024-01-30T11:21:06.771Z,15.18
2024-01-30T11:23:35.103Z,18.62
2024-01-30T11:26:02.065Z,19.17
2024-01-30T11:28:35.749Z,20.02
2024-01-30T11:31:06.917Z,18.80
2024-01-30T11:33:35.279Z,18.42
2024-01-30T11:36:03.616Z,19.00
2024-01-30T11:38:30.576Z,16.10
2024-01-30T11:41:00.875Z,19.00
2024-01-30T11:43:27.818Z,17.50
2024-01-30T11:45:54.915Z,17.85
2024-01-30T11:48:21.941Z,17.75
2024-01-30T11:50:51.908Z,16.42
2024-01-30T11:53:18.748Z,16.73
2024-01-30T11:58:17.657Z,23.42
2024-01-30T12:00:45.250Z,17.92
2024-01-30T12:03:12.705Z,19.58
2024-01-30T12:05:44.249Z,23.87
2024-01-30T12:08:16.856Z,19.83
2024-01-30T12:10:43.800Z,19.80
2024-01-30T12:13:11.078Z,20.65
2024-01-30T12:15:37.959Z,19.67
2024-01-30T12:18:09.131Z,21.77
2024-01-30T12:20:36.332Z,22.33
2024-01-30T12:23:03.821Z,21.27
2024-01-30T12:25:31.229Z,22.20
2024-01-30T12:27:59.050Z,23.05
2024-01-30T12:30:26.232Z,19.87
2024-01-30T12:32:53.294Z,19.67
2024-01-30T12:35:21.879Z,21.50
2024-01-30T12:37:50.331Z,22.87
2024-01-30T12:40:17.682Z,21.62
2024-01-30T12:42:50.352Z,21.40
2024-01-30T12:45:21.491Z,21.40
2024-01-30T12:47:48.581Z,21.50
2024-01-30T12:50:17.007Z,18.15
2024-01-30T12:52:45.867Z,22.55
2024-01-30T12:55:14.323Z,19.85
2024-01-30T12:57:41.221Z,23.45
2024-01-30T13:00:09.646Z,20.48
2024-01-30T13:02:38.041Z,17.50
2024-01-30T13:05:05.818Z,20.90
2024-01-30T13:07:33.030Z,19.00
2024-01-30T13:10:04.364Z,18.37
2024-01-30T13:12:33.555Z,15.38
2024-01-30T13:15:02.468Z,20.15
2024-01-30T13:17:29.930Z,19.02
2024-01-30T13:20:02.386Z,18.85
2024-01-30T13:25:00.937Z,20.17
2024-01-30T13:27:28.002Z,16.70
2024-01-30T13:29:54.881Z,19.40
2024-01-30T13:32:21.724Z,20.02
2024-01-30T13:37:15.714Z,20.80
2024-01-30T13:39:42.665Z,17.87
2024-01-30T13:42:09.588Z,19.75
2024-01-30T13:44:37.191Z,18.73
2024-01-30T13:47:04.670Z,19.08
2024-01-30T13:49:31.636Z,19.33
2024-01-30T13:51:59.556Z,19.33
2024-01-30T13:54:26.458Z,17.98
2024-01-30T13:56:53.357Z,17.30
2024-01-30T13:59:24.958Z,17.65
2024-01-30T14:01:52.587Z,19.87
2024-01-30T14:04:19.621Z,23.70
2024-01-30T14:06:53.296Z,20.83
2024-01-30T14:09:24.168Z,24.42
2024-01-30T14:11:51.035Z,21.40
2024-01-30T14:14:18.005Z,16.58
2024-01-30T14:16:44.961Z,21.73
2024-01-30T14:19:11.935Z,22.48
2024-01-30T14:21:39.200Z,21.52
2024-01-30T14:24:06.942Z,20.77
2024-01-30T14:26:35.744Z,21.58
2024-01-30T14:29:02.585Z,22.27
2024-01-30T14:33:56.737Z,24.33
2024-01-30T14:36:23.779Z,21.90
2024-01-30T14:38:50.665Z,21.87
2024-01-30T14:43:44.654Z,24.08
2024-01-30T14:46:11.658Z,24.48
2024-01-30T14:48:38.692Z,24.77
2024-01-30T14:51:05.705Z,22.33
2024-01-30T14:53:32.546Z,22.17
2024-01-30T14:58:26.251Z,24.30
2024-01-30T15:00:53.283Z,23.85
2024-01-30T15:03:23.459Z,27.70
2024-01-30T15:05:51.016Z,21.75
2024-01-30T15:08:17.971Z,23.48
2024-01-30T15:10:45.025Z,30.55
2024-01-30T15:13:13.225Z,31.10
2024-01-30T15:15:40.119Z,34.60
2024-01-30T15:18:07.137Z,30.08
2024-01-30T15:20:34.099Z,29.08
2024-01-30T15:23:01.058Z,35.70
2024-01-30T15:25:30.556Z,31.95
2024-01-30T15:27:57.591Z,34.08
2024-01-30T15:30:24.500Z,34.60
2024-01-30T15:32:52.684Z,33.63
2024-01-30T15:35:19.796Z,27.50
2024-01-30T15:37:47.371Z,26.05
2024-01-30T15:40:14.689Z,26.40
2024-01-30T15:42:41.618Z,27.55
2024-01-30T15:45:08.720Z,26.67
2024-01-30T15:47:35.744Z,31.50
2024-01-30T15:50:02.871Z,62.42
2024-01-30T15:52:29.912Z,66.50
2024-01-30T15:54:56.842Z,70.18
2024-01-30T15:57:24.672Z,64.20
2024-01-30T15:59:51.986Z,76.80
2024-01-30T16:04:48.074Z,89.68
2024-01-30T16:07:15.077Z,92.75
2024-01-30T16:09:42.075Z,83.30
2024-01-30T16:12:09.032Z,92.07
2024-01-30T16:14:37.562Z,99.93
2024-01-30T16:17:04.683Z,116.80
2024-01-30T16:19:31.692Z,120.90
2024-01-30T16:21:58.869Z,116.40
2024-01-30T16:24:25.800Z,96.85
2024-01-30T16:26:52.700Z,99.13
2024-01-30T16:29:19.549Z,106.57
2024-01-30T16:34:13.423Z,148.23
2024-01-30T16:36:41.206Z,160.80
2024-01-30T16:39:09.036Z,172.30
2024-01-30T16:41:37.047Z,179.68
2024-01-30T16:44:05.394Z,171.13
2024-01-30T16:46:32.258Z,145.73
2024-01-30T16:48:59.359Z,157.98
2024-01-30T16:51:26.374Z,194.70
2024-01-30T16:53:53.193Z,206.30
2024-01-30T16:56:19.959Z,178.23
2024-01-30T17:01:13.482Z,167.82
2024-01-30T17:03:43.217Z,145.75
2024-01-30T17:06:13.628Z,154.65
2024-01-30T17:08:41.207Z,219.27
2024-01-30T17:11:09.157Z,173.50
2024-01-30T17:13:37.357Z,65.87
2024-01-30T17:16:04.575Z,54.38
2024-01-30T17:18:31.927Z,52.65
2024-01-30T17:20:58.861Z,58.17
2024-01-30T17:23:27.176Z,70.07
2024-01-30T17:25:54.254Z,68.93
2024-01-30T17:28:21.306Z,69.78
2024-01-30T17:30:49.225Z,62.30
2024-01-30T17:33:16.712Z,55.80
2024-01-30T17:35:43.824Z,58.30
2024-01-30T17:38:10.829Z,55.65
2024-01-30T17:40:37.833Z,59.50
2024-01-30T17:43:05.022Z,58.40
2024-01-30T17:45:32.038Z,64.93
2024-01-30T17:47:58.955Z,66.10
2024-01-30T17:50:26.085Z,55.80
2024-01-30T17:52:55.002Z,52.22
2024-01-30T17:55:21.943Z,66.22
2024-01-30T17:57:48.775Z,49.17
2024-01-30T18:02:46.577Z,50.38
2024-01-30T18:05:13.952Z,51.25
2024-01-30T18:07:41.490Z,44.58
2024-01-30T18:10:08.887Z,44.83
2024-01-30T18:12:36.381Z,72.53
2024-01-30T18:15:06.807Z,149.25
2024-01-30T18:17:33.598Z,152.18
2024-01-30T18:22:27.953Z,93.72
2024-01-30T18:24:54.765Z,86.18
2024-01-30T18:27:22.674Z,98.32
2024-01-30T18:29:52.194Z,89.45
2024-01-30T18:32:20.129Z,64.15
2024-01-30T18:34:47.145Z,61.28
2024-01-30T18:37:14.126Z,55.70
2024-01-30T18:39:43.291Z,69.07
2024-01-30T18:42:10.324Z,68.10
2024-01-30T18:44:37.242Z,63.67
2024-01-30T18:47:04.522Z,59.25
2024-01-30T18:49:31.404Z,56.35
2024-01-30T18:51:59.676Z,68.00
2024-01-30T18:54:26.834Z,68.03
2024-01-30T18:56:53.650Z,82.20
2024-01-30T19:01:47.267Z,66.53
2024-01-30T19:04:14.507Z,68.85
2024-01-30T19:06:41.545Z,55.17
2024-01-30T19:09:11.611Z,51.40
2024-01-30T19:11:38.476Z,63.10
2024-01-30T19:14:05.389Z,57.28
2024-01-30T19:16:32.301Z,50.42
2024-01-30T19:18:59.255Z,47.83
2024-01-30T19:21:26.162Z,74.43
2024-01-30T19:23:54.708Z,86.32
2024-01-30T19:26:21.530Z,133.32
2024-01-30T19:31:19.181Z,161.57
2024-01-30T19:33:46.718Z,145.27
2024-01-30T19:36:14.111Z,147.93
2024-01-30T19:38:41.054Z,156.90
2024-01-30T19:41:08.849Z,154.85
2024-01-30T19:43:36.006Z,111.20
2024-01-30T19:46:02.975Z,56.40
2024-01-30T19:48:29.934Z,57.00
2024-01-30T19:50:57.694Z,53.30
2024-01-30T19:53:24.636Z,56.70
2024-01-30T19:55:51.510Z,63.38
2024-01-30T19:58:18.369Z,88.37
2024-01-30T20:00:45.536Z,100.78
2024-01-30T20:03:12.505Z,104.93
2024-01-30T20:05:39.457Z,111.28
2024-01-30T20:08:06.662Z,105.30
2024-01-30T20:10:33.733Z,100.97
2024-01-30T20:13:00.695Z,115.47
2024-01-30T20:15:27.654Z,97.35
2024-01-30T20:17:54.490Z,90.85
2024-01-30T20:20:21.765Z,86.93
2024-01-30T20:22:48.810Z,92.72
2024-01-30T20:25:19.229Z,76.20
2024-01-30T20:27:47.761Z,70.53
2024-01-30T20:30:14.863Z,53.47
2024-01-30T20:32:41.974Z,57.90
2024-01-30T20:35:09.422Z,68.10
2024-01-30T20:37:38.297Z,72.47
2024-01-30T20:40:05.925Z,71.85
2024-01-30T20:42:32.847Z,68.15
2024-01-30T20:44:59.795Z,62.53
2024-01-30T20:47:26.862Z,68.35
2024-01-30T20:49:53.923Z,63.03
2024-01-30T20:52:20.806Z,62.62
2024-01-30T20:54:47.676Z,62.03
2024-01-30T20:57:14.628Z,78.07
2024-01-30T20:59:41.468Z,96.10
2024-01-30T21:02:08.344Z,87.85
2024-01-30T21:04:35.276Z,76.87
2024-01-30T21:07:02.260Z,71.40
2024-01-30T21:09:29.302Z,68.37
2024-01-30T21:11:56.788Z,71.00
2024-01-30T21:14:23.757Z,76.12
2024-01-30T21:16:50.516Z,72.35
2024-01-30T21:21:44.925Z,99.15
2024-01-30T21:26:38.453Z,71.22
2024-01-30T21:29:05.306Z,58.38
2024-01-30T21:31:32.203Z,65.25
2024-01-30T21:33:59.115Z,58.50
2024-01-30T21:36:25.991Z,100.80
2024-01-30T21:38:52.813Z,122.40
2024-01-30T21:41:19.914Z,178.38
2024-01-30T21:43:47.464Z,167.18
2024-01-30T21:46:24.478Z,226.62
2024-01-30T21:48:51.352Z,225.32
2024-01-30T21:51:20.918Z,208.75
2024-01-30T21:53:47.952Z,159.82
2024-01-30T21:56:14.925Z,167.27
2024-01-30T21:58:41.829Z,131.70
2024-01-30T22:01:08.769Z,119.55
2024-01-30T22:03:35.819Z,117.07
2024-01-30T22:06:02.672Z,130.18
2024-01-30T22:10:56.161Z,92.55
2024-01-30T22:13:23.602Z,95.22
2024-01-30T22:15:50.641Z,83.93
2024-01-30T22:18:17.540Z,81.15
2024-01-30T22:20:44.487Z,74.00
2024-01-30T22:25:38.207Z,51.28
2024-01-30T22:28:05.478Z,60.00
2024-01-30T22:30:32.329Z,76.50
2024-01-30T22:35:25.987Z,77.55
2024-01-30T22:37:53.042Z,79.90
2024-01-30T22:40:19.942Z,87.72
2024-01-30T22:42:46.787Z,92.53
2024-01-30T22:47:40.326Z,64.45
2024-01-30T22:52:34.253Z,67.47
2024-01-30T22:55:01.288Z,64.07
2024-01-30T22:57:29.034Z,83.43
2024-01-30T22:59:56.057Z,93.00
2024-01-30T23:04:50.600Z,96.47
2024-01-30T23:07:18.046Z,102.93
2024-01-30T23:09:47.782Z,97.82
2024-01-30T23:12:14.640Z,91.63
2024-01-30T23:17:08.173Z,76.37
2024-01-30T23:22:01.904Z,60.30
2024-01-30T23:24:28.745Z,73.72
2024-01-30T23:29:22.285Z,85.43
2024-01-30T23:34:16.583Z,68.75
2024-01-30T23:36:44.448Z,68.28
2024-01-30T23:39:11.574Z,63.72
2024-01-30T23:41:38.439Z,64.57
2024-01-30T23:46:33.958Z,69.28
2024-01-30T23:49:01.903Z,68.28
2024-01-30T23:51:28.898Z,70.47
2024-01-30T23:53:55.828Z,64.85
2024-01-30T23:56:23.055Z,62.67
2024-01-30T23:58:49.972Z,68.30
